createdAt,value
2018-12-23T00:00:43.912Z,7.23
2018-12-23T00:03:14.070Z,7.23
2018-12-23T00:05:42.823Z,7.80
2018-12-23T00:08:11.753Z,8.23
2018-12-23T00:10:40.565Z,7.17
2018-12-23T00:13:09.539Z,7.40
2018-12-23T00:15:38.218Z,8.10
2018-12-23T00:18:06.813Z,7.50
2018-12-23T00:20:35.446Z,8.60
2018-12-23T00:23:04.145Z,8.27
2018-12-23T00:25:32.893Z,8.33
2018-12-23T00:28:01.610Z,8.33
2018-12-23T00:30:30.472Z,8.70
2018-12-23T00:32:59.332Z,8.20
2018-12-23T00:35:27.996Z,8.50
2018-12-23T00:37:56.862Z,8.00
2018-12-23T00:40:25.512Z,8.27
2018-12-23T00:42:54.203Z,9.77
2018-12-23T00:45:22.785Z,6.80
2018-12-23T00:47:51.366Z,6.23
2018-12-23T00:50:20.323Z,8.87
2018-12-23T00:52:49.097Z,6.37
2018-12-23T00:55:18.016Z,6.70
2018-12-23T00:57:46.569Z,5.33
2018-12-23T01:00:15.451Z,5.43
2018-12-23T01:02:44.188Z,5.17
2018-12-23T01:05:13.228Z,5.23
2018-12-23T01:07:41.910Z,6.50
2018-12-23T01:10:10.955Z,6.27
2018-12-23T01:12:39.724Z,5.53
2018-12-23T01:15:08.697Z,6.17
2018-12-23T01:17:37.590Z,7.53
2018-12-23T01:20:08.457Z,8.40
2018-12-23T01:22:37.002Z,6.43
2018-12-23T01:25:06.642Z,6.53
2018-12-23T01:27:35.378Z,6.50
2018-12-23T01:30:04.229Z,6.83
2018-12-23T01:32:33.356Z,7.63
2018-12-23T01:35:02.146Z,8.70
2018-12-23T01:37:31.059Z,10.63
2018-12-23T01:39:59.569Z,9.53
2018-12-23T01:42:28.114Z,9.97
2018-12-23T01:44:56.841Z,9.40
2018-12-23T01:47:25.554Z,12.10
2018-12-23T01:49:54.214Z,10.67
2018-12-23T01:52:22.796Z,10.83
2018-12-23T01:54:51.753Z,11.10
2018-12-23T01:57:20.591Z,11.43
2018-12-23T01:59:49.369Z,9.80
2018-12-23T02:02:18.315Z,11.80
2018-12-23T02:04:47.113Z,11.77
2018-12-23T02:07:15.951Z,11.10
2018-12-23T02:09:44.651Z,8.80
2018-12-23T02:12:13.468Z,10.23
2018-12-23T02:14:42.005Z,9.90
2018-12-23T02:17:10.713Z,9.20
2018-12-23T02:19:39.433Z,9.00
2018-12-23T02:22:08.374Z,10.13
2018-12-23T02:24:36.940Z,9.13
2018-12-23T02:27:05.515Z,10.47
2018-12-23T02:29:34.075Z,10.50
2018-12-23T02:32:02.743Z,9.90
2018-12-23T02:34:31.394Z,11.23
2018-12-23T02:37:01.286Z,12.23
2018-12-23T02:39:30.127Z,12.50
2018-12-23T02:41:59.086Z,11.60
2018-12-23T02:44:27.613Z,12.00
2018-12-23T02:46:56.402Z,10.90
2018-12-23T02:49:25.085Z,10.40
2018-12-23T02:51:53.659Z,11.93
2018-12-23T02:54:22.510Z,11.10
2018-12-23T02:56:51.097Z,13.40
2018-12-23T02:59:19.655Z,10.20
2018-12-23T03:01:48.555Z,11.40
2018-12-23T03:04:17.115Z,12.43
2018-12-23T03:06:45.653Z,11.57
2018-12-23T03:09:14.338Z,10.90
2018-12-23T03:11:42.866Z,11.30
2018-12-23T03:14:11.420Z,11.33
2018-12-23T03:16:39.945Z,12.40
2018-12-23T03:19:08.470Z,11.23
2018-12-23T03:21:37.358Z,11.20
2018-12-23T03:24:05.834Z,12.50
2018-12-23T03:26:34.363Z,12.43
2018-12-23T03:29:02.923Z,11.37
2018-12-23T03:31:31.447Z,12.33
2018-12-23T03:34:00.122Z,11.40
2018-12-23T03:36:29.110Z,10.50
2018-12-23T03:38:57.771Z,11.00
2018-12-23T03:41:26.405Z,10.80
2018-12-23T03:43:55.171Z,11.17
2018-12-23T03:46:23.913Z,13.47
2018-12-23T03:48:52.476Z,13.80
2018-12-23T03:51:21.003Z,11.57
2018-12-23T03:53:49.550Z,13.30
2018-12-23T03:56:18.413Z,11.50
2018-12-23T03:58:47.124Z,12.13
2018-12-23T04:01:15.658Z,11.10
2018-12-23T04:03:44.161Z,10.80
2018-12-23T04:06:12.679Z,10.60
2018-12-23T04:08:41.173Z,11.30
2018-12-23T04:11:09.760Z,11.53
2018-12-23T04:13:38.318Z,12.50
2018-12-23T04:16:06.881Z,10.80
2018-12-23T04:18:35.438Z,11.23
2018-12-23T04:21:04.018Z,11.80
2018-12-23T04:23:32.531Z,12.40
2018-12-23T04:26:01.287Z,11.33
2018-12-23T04:28:30.005Z,11.53
2018-12-23T04:30:58.545Z,11.27
2018-12-23T04:33:27.186Z,10.73
2018-12-23T04:35:55.733Z,9.97
2018-12-23T04:38:24.330Z,10.90
2018-12-23T04:40:52.984Z,10.30
2018-12-23T04:43:21.710Z,9.23
2018-12-23T04:45:50.415Z,8.80
2018-12-23T04:48:19.218Z,9.30
2018-12-23T04:50:47.883Z,10.43
2018-12-23T04:53:16.740Z,8.73
2018-12-23T04:55:45.331Z,11.03
2018-12-23T04:58:13.857Z,10.33
2018-12-23T05:00:42.434Z,9.40
2018-12-23T05:03:11.010Z,8.40
2018-12-23T05:05:39.881Z,8.40
2018-12-23T05:08:08.706Z,8.77
2018-12-23T05:10:37.298Z,8.70
2018-12-23T05:13:06.873Z,9.63
2018-12-23T05:15:36.957Z,9.67
2018-12-23T05:18:05.657Z,8.83
2018-12-23T05:20:34.497Z,8.20
2018-12-23T05:23:03.480Z,8.40
2018-12-23T05:25:32.224Z,7.33
2018-12-23T05:28:00.872Z,7.93
2018-12-23T05:30:29.529Z,7.97
2018-12-23T05:32:58.224Z,6.90
2018-12-23T05:35:26.752Z,8.70
2018-12-23T05:37:55.940Z,7.00
2018-12-23T05:40:24.623Z,8.77
2018-12-23T05:42:53.545Z,7.70
2018-12-23T05:45:22.128Z,8.10
2018-12-23T05:47:50.885Z,7.20
2018-12-23T05:50:19.434Z,8.83
2018-12-23T05:52:48.139Z,7.60
2018-12-23T05:55:25.732Z,7.20
2018-12-23T05:57:55.231Z,7.00
2018-12-23T06:00:23.922Z,8.53
2018-12-23T06:02:52.437Z,8.03
2018-12-23T06:05:20.955Z,7.97
2018-12-23T06:07:49.507Z,6.87
2018-12-23T06:10:18.105Z,7.77
2018-12-23T06:12:46.608Z,7.10
2018-12-23T06:15:15.346Z,7.77
2018-12-23T06:17:43.903Z,8.20
2018-12-23T06:20:12.855Z,8.83
2018-12-23T06:22:41.594Z,9.60
2018-12-23T06:25:10.492Z,8.97
2018-12-23T06:27:39.217Z,7.70
2018-12-23T06:30:08.265Z,9.97
2018-12-23T06:32:36.892Z,8.60
2018-12-23T06:35:05.845Z,8.40
2018-12-23T06:37:34.423Z,9.83
2018-12-23T06:40:03.137Z,9.17
2018-12-23T06:42:31.785Z,9.27
2018-12-23T06:45:00.576Z,10.30
2018-12-23T06:47:29.163Z,8.77
2018-12-23T06:49:57.899Z,30.33
2018-12-23T06:52:26.537Z,9.80
2018-12-23T06:54:55.564Z,10.50
2018-12-23T06:57:24.365Z,10.03
2018-12-23T06:59:53.006Z,9.87
2018-12-23T07:02:21.546Z,10.73
2018-12-23T07:04:50.075Z,9.43
2018-12-23T07:07:19.039Z,9.73
2018-12-23T07:09:47.904Z,10.80
2018-12-23T07:12:16.465Z,10.33
2018-12-23T07:14:45.149Z,11.43
2018-12-23T07:17:13.745Z,9.50
2018-12-23T07:19:42.441Z,9.03
2018-12-23T07:22:11.086Z,8.97
2018-12-23T07:24:39.667Z,10.60
2018-12-23T07:27:08.586Z,9.13
2018-12-23T07:29:37.085Z,11.03
2018-12-23T07:32:06.062Z,9.10
2018-12-23T07:34:34.595Z,11.80
2018-12-23T07:37:03.249Z,9.73
2018-12-23T07:39:31.855Z,12.80
2018-12-23T07:42:00.505Z,9.10
2018-12-23T07:44:29.065Z,9.27
2018-12-23T07:46:57.878Z,9.93
2018-12-23T07:49:26.490Z,11.33
2018-12-23T07:51:55.211Z,9.57
2018-12-23T07:54:24.000Z,10.33
2018-12-23T07:56:52.653Z,10.90
2018-12-23T07:59:21.247Z,11.97
2018-12-23T08:01:50.146Z,9.50
2018-12-23T08:04:18.885Z,10.00
2018-12-23T08:06:47.439Z,11.50
2018-12-23T08:09:16.645Z,10.10
2018-12-23T08:11:45.283Z,9.53
2018-12-23T08:14:13.917Z,10.10
2018-12-23T08:16:42.566Z,10.97
2018-12-23T08:19:11.201Z,9.63
2018-12-23T08:21:39.755Z,10.23
2018-12-23T08:24:08.562Z,9.27
2018-12-23T08:26:37.262Z,10.40
2018-12-23T08:29:05.979Z,11.23
2018-12-23T08:31:34.683Z,9.87
2018-12-23T08:34:03.353Z,11.63
2018-12-23T08:36:32.202Z,10.60
2018-12-23T08:39:01.191Z,11.33
2018-12-23T08:41:30.405Z,11.90
2018-12-23T08:43:59.064Z,11.67
2018-12-23T08:46:27.826Z,12.50
2018-12-23T08:48:57.351Z,12.57
2018-12-23T08:51:25.966Z,11.50
2018-12-23T08:53:54.572Z,13.20
2018-12-23T08:56:23.165Z,11.17
2018-12-23T08:58:51.777Z,12.63
2018-12-23T09:01:20.427Z,12.77
2018-12-23T09:03:49.459Z,12.90
2018-12-23T09:06:18.647Z,11.17
2018-12-23T09:08:47.479Z,12.67
2018-12-23T09:11:16.454Z,12.80
2018-12-23T09:13:45.147Z,12.90
2018-12-23T09:16:14.134Z,12.97
2018-12-23T09:18:42.930Z,13.37
2018-12-23T09:21:12.714Z,12.87
2018-12-23T09:23:41.642Z,10.27
2018-12-23T09:26:10.558Z,11.07
2018-12-23T09:28:39.315Z,11.30
2018-12-23T09:31:08.044Z,12.43
2018-12-23T09:33:36.757Z,12.20
2018-12-23T09:36:05.586Z,10.77
2018-12-23T09:38:34.169Z,14.63
2018-12-23T09:41:02.969Z,10.30
2018-12-23T09:43:31.672Z,8.33
2018-12-23T09:46:00.554Z,9.57
2018-12-23T09:48:29.371Z,10.00
2018-12-23T09:50:58.074Z,8.60
2018-12-23T09:53:26.915Z,10.20
2018-12-23T09:55:55.647Z,10.00
2018-12-23T09:58:24.288Z,9.70
2018-12-23T10:00:52.957Z,9.77
2018-12-23T10:03:21.539Z,9.10
2018-12-23T10:05:50.637Z,8.27
2018-12-23T10:08:19.335Z,9.57
2018-12-23T10:10:47.939Z,9.20
2018-12-23T10:13:16.887Z,9.10
2018-12-23T10:15:45.587Z,9.00
2018-12-23T10:18:14.237Z,8.47
2018-12-23T10:20:43.126Z,9.80
2018-12-23T10:23:12.008Z,7.13
2018-12-23T10:25:40.959Z,9.30
2018-12-23T10:28:09.960Z,7.83
2018-12-23T10:30:38.760Z,9.63
2018-12-23T10:33:07.497Z,7.63
2018-12-23T10:35:36.520Z,9.20
2018-12-23T10:38:05.360Z,9.40
2018-12-23T10:40:34.126Z,8.00
2018-12-23T10:43:02.816Z,7.90
2018-12-23T10:45:31.773Z,7.60
2018-12-23T10:48:00.616Z,8.83
2018-12-23T10:50:29.414Z,9.93
2018-12-23T10:52:58.269Z,8.77
2018-12-23T10:55:27.292Z,7.57
2018-12-23T10:57:56.408Z,8.73
2018-12-23T11:00:26.768Z,9.97
2018-12-23T11:02:55.888Z,9.67
2018-12-23T11:05:24.913Z,9.60
2018-12-23T11:07:53.616Z,8.70
2018-12-23T11:10:22.533Z,10.67
2018-12-23T11:12:51.237Z,9.67
2018-12-23T11:15:20.167Z,9.10
2018-12-23T11:17:48.972Z,8.20
2018-12-23T11:20:17.908Z,9.10
2018-12-23T11:22:46.610Z,9.60
2018-12-23T11:25:15.545Z,9.17
2018-12-23T11:27:44.568Z,9.73
2018-12-23T11:30:13.449Z,9.23
2018-12-23T11:32:42.289Z,8.90
2018-12-23T11:35:11.157Z,9.43
2018-12-23T11:37:40.231Z,6.87
2018-12-23T11:40:09.398Z,8.33
2018-12-23T11:42:38.091Z,8.50
2018-12-23T11:45:07.329Z,9.47
2018-12-23T11:47:35.952Z,7.80
2018-12-23T11:50:06.127Z,7.67
2018-12-23T11:52:34.911Z,9.97
2018-12-23T11:55:03.759Z,8.80
2018-12-23T11:57:32.596Z,8.10
2018-12-23T12:00:01.211Z,9.50
2018-12-23T12:02:29.918Z,9.10
2018-12-23T12:04:59.022Z,7.47
2018-12-23T12:08:17.791Z,7.53
2018-12-23T12:10:47.927Z,8.43
2018-12-23T12:13:18.133Z,9.27
2018-12-23T12:15:50.011Z,9.30
2018-12-23T12:18:20.133Z,8.90
2018-12-23T12:20:50.516Z,9.13
2018-12-23T12:23:20.437Z,8.33
2018-12-23T12:25:50.705Z,7.40
2018-12-23T12:28:21.115Z,6.57
2018-12-23T12:30:51.025Z,7.47
2018-12-23T12:33:21.029Z,8.80
2018-12-23T12:35:51.156Z,8.70
2018-12-23T12:38:21.281Z,6.90
2018-12-23T12:40:52.354Z,8.13
2018-12-23T12:43:22.545Z,5.33
2018-12-23T12:46:00.302Z,7.10
2018-12-23T12:48:24.204Z,6.70
2018-12-23T12:50:54.176Z,6.90
2018-12-23T12:53:24.246Z,5.87
2018-12-23T12:55:54.277Z,3.87
2018-12-23T12:58:24.494Z,5.20
2018-12-23T13:00:54.466Z,3.23
2018-12-23T13:03:24.529Z,3.77
2018-12-23T13:05:54.707Z,3.23
2018-12-23T13:08:24.746Z,3.10
2018-12-23T13:10:54.807Z,3.53
2018-12-23T13:13:24.937Z,3.17
2018-12-23T13:15:55.016Z,3.60
2018-12-23T13:18:25.024Z,4.17
2018-12-23T13:20:55.425Z,4.00
2018-12-23T13:23:25.554Z,3.57
2018-12-23T13:25:55.571Z,3.30
2018-12-23T13:28:25.916Z,2.90
2018-12-23T13:30:55.904Z,4.73
2018-12-23T13:33:25.873Z,3.90
2018-12-23T13:35:55.933Z,4.33
2018-12-23T13:38:26.038Z,4.50
2018-12-23T13:41:03.699Z,4.97
2018-12-23T13:43:58.902Z,5.30
2018-12-23T13:47:04.480Z,4.73
2018-12-23T13:50:10.365Z,5.20
2018-12-23T13:52:50.715Z,5.30
2018-12-23T13:55:52.006Z,5.20
2018-12-23T13:59:00.426Z,5.70
2018-12-23T14:02:10.806Z,5.73
2018-12-23T14:04:56.663Z,5.90
2018-12-23T14:07:52.283Z,5.50
2018-12-23T14:11:17.340Z,6.13
2018-12-23T14:13:47.626Z,5.23
2018-12-23T14:16:18.004Z,4.97
2018-12-23T14:19:04.248Z,4.87
2018-12-23T14:21:34.345Z,4.03
2018-12-23T14:24:04.535Z,3.63
2018-12-23T14:26:34.648Z,3.77
2018-12-23T14:29:05.041Z,3.83
2018-12-23T14:31:35.098Z,3.57
2018-12-23T14:34:05.070Z,4.70
2018-12-23T14:36:35.274Z,4.23
2018-12-23T14:39:07.457Z,5.23
2018-12-23T14:41:37.568Z,6.07
2018-12-23T14:44:07.801Z,5.13
2018-12-23T14:46:38.034Z,4.90
2018-12-23T14:49:08.705Z,5.90
2018-12-23T14:51:38.811Z,5.30
2018-12-23T14:54:09.172Z,4.77
2018-12-23T14:56:39.314Z,4.63
2018-12-23T14:59:09.650Z,3.63
2018-12-23T15:01:40.311Z,4.63
2018-12-23T15:04:10.709Z,4.80
2018-12-23T15:06:41.114Z,4.67
2018-12-23T15:09:11.193Z,4.60
2018-12-23T15:11:41.516Z,4.07
2018-12-23T15:14:11.677Z,4.50
2018-12-23T15:16:42.017Z,4.10
2018-12-23T15:19:14.086Z,5.30
2018-12-23T15:21:44.145Z,4.33
2018-12-23T15:24:14.387Z,4.67
2018-12-23T15:26:44.348Z,5.23
2018-12-23T15:29:14.598Z,3.53
2018-12-23T15:31:45.192Z,4.50
2018-12-23T15:34:15.531Z,5.67
2018-12-23T15:36:45.631Z,4.70
2018-12-23T15:39:15.700Z,4.67
2018-12-23T15:41:45.924Z,6.10
2018-12-23T15:44:16.500Z,6.80
2018-12-23T15:46:46.813Z,8.37
2018-12-23T15:49:17.035Z,7.27
2018-12-23T15:51:47.025Z,8.50
2018-12-23T15:54:17.402Z,7.40
2018-12-23T15:56:47.951Z,7.83
2018-12-23T15:59:18.324Z,7.90
2018-12-23T16:01:48.770Z,6.53
2018-12-23T16:04:18.895Z,5.73
2018-12-23T16:06:49.066Z,6.03
2018-12-23T16:09:19.205Z,5.07
2018-12-23T16:11:49.855Z,4.93
2018-12-23T16:14:20.410Z,5.97
2018-12-23T16:16:50.682Z,5.90
2018-12-23T16:19:21.063Z,7.90
2018-12-23T16:21:51.727Z,5.07
2018-12-23T16:24:22.517Z,5.30
2018-12-23T16:26:52.723Z,6.80
2018-12-23T16:29:23.255Z,6.67
2018-12-23T16:31:53.582Z,7.23
2018-12-23T16:34:23.710Z,7.27
2018-12-23T16:36:53.988Z,8.90
2018-12-23T16:39:24.381Z,10.90
2018-12-23T16:41:54.961Z,8.57
2018-12-23T16:44:25.181Z,9.20
2018-12-23T16:46:55.376Z,7.30
2018-12-23T16:49:25.943Z,9.80
2018-12-23T16:51:56.563Z,9.00
2018-12-23T16:54:26.619Z,10.10
2018-12-23T16:56:56.961Z,8.47
2018-12-23T16:59:27.274Z,6.30
2018-12-23T17:01:57.880Z,7.10
2018-12-23T17:04:28.307Z,8.30
2018-12-23T17:06:59.974Z,6.53
2018-12-23T17:09:30.108Z,6.80
2018-12-23T17:12:00.851Z,5.77
2018-12-23T17:14:31.182Z,6.27
2018-12-23T17:17:01.329Z,9.23
2018-12-23T17:19:31.435Z,8.10
2018-12-23T17:22:02.493Z,6.37
2018-12-23T17:24:32.434Z,6.60
2018-12-23T17:27:02.726Z,8.20
2018-12-23T17:29:32.910Z,8.97
2018-12-23T17:32:03.143Z,7.37
2018-12-23T17:34:33.471Z,7.30
2018-12-23T17:37:03.919Z,7.90
2018-12-23T17:39:34.289Z,7.90
2018-12-23T17:42:04.552Z,8.47
2018-12-23T17:44:34.788Z,8.43
2018-12-23T17:47:05.279Z,10.07
2018-12-23T17:49:35.501Z,9.17
2018-12-23T17:52:05.893Z,8.77
2018-12-23T17:54:36.358Z,9.33
2018-12-23T17:57:06.899Z,10.70
2018-12-23T17:59:37.153Z,9.10
2018-12-23T18:02:08.687Z,9.00
2018-12-23T18:04:38.906Z,9.70
2018-12-23T18:07:09.316Z,9.70
2018-12-23T18:09:39.418Z,9.80
2018-12-23T18:12:09.969Z,10.37
2018-12-23T18:14:40.124Z,9.10
2018-12-23T18:17:10.571Z,9.50
2018-12-23T18:19:40.966Z,9.20
2018-12-23T18:22:13.353Z,8.80
2018-12-23T18:24:43.761Z,8.40
2018-12-23T18:27:13.828Z,9.27
2018-12-23T18:29:44.271Z,9.40
2018-12-23T18:32:14.393Z,10.30
2018-12-23T18:34:44.725Z,12.03
2018-12-23T18:37:14.877Z,12.00
2018-12-23T18:39:44.902Z,11.47
2018-12-23T18:42:16.324Z,10.97
2018-12-23T18:44:46.360Z,10.30
2018-12-23T18:47:16.373Z,10.47
2018-12-23T18:49:47.014Z,11.27
2018-12-23T18:52:18.504Z,12.47
2018-12-23T18:54:51.298Z,10.90
2018-12-23T18:57:22.733Z,13.53
2018-12-23T18:59:53.655Z,12.50
2018-12-23T19:02:45.082Z,11.07
2018-12-23T19:05:15.632Z,12.23
2018-12-23T19:07:47.553Z,13.03
2018-12-23T19:10:53.690Z,12.57
2018-12-23T19:13:59.440Z,16.07
2018-12-23T19:17:12.125Z,14.40
2018-12-23T19:20:32.398Z,13.57
2018-12-23T19:23:26.576Z,10.60
2018-12-23T19:26:46.164Z,13.60
2018-12-23T19:29:40.248Z,11.30
2018-12-23T19:32:56.742Z,15.77
2018-12-23T19:36:21.571Z,9.70
2018-12-23T19:39:26.518Z,12.00
2018-12-23T19:42:40.896Z,11.50
2018-12-23T19:45:56.927Z,11.17
2018-12-23T19:49:29.883Z,6.13
2018-12-23T19:52:45.424Z,5.13
2018-12-23T19:55:58.972Z,6.70
2018-12-23T19:59:31.013Z,4.30
2018-12-23T20:02:42.160Z,3.17
2018-12-23T20:06:00.745Z,1.93
2018-12-23T20:08:56.271Z,2.30
2018-12-23T20:12:07.100Z,3.27
2018-12-23T20:15:05.807Z,3.00
2018-12-23T20:18:04.910Z,2.63
2018-12-23T20:21:16.386Z,2.80
2018-12-23T20:24:30.596Z,4.60
2018-12-23T20:28:00.811Z,3.70
2018-12-23T20:31:20.002Z,4.50
2018-12-23T20:34:19.625Z,4.10
2018-12-23T20:37:38.992Z,4.80
2018-12-23T20:40:54.978Z,4.10
2018-12-23T20:43:59.989Z,4.50
2018-12-23T20:47:07.621Z,4.33
2018-12-23T20:50:26.856Z,5.30
2018-12-23T20:53:32.467Z,5.03
2018-12-23T20:56:39.152Z,5.03
2018-12-23T20:59:43.945Z,6.03
2018-12-23T21:03:11.927Z,6.00
2018-12-23T21:06:19.272Z,6.70
2018-12-23T21:09:40.631Z,6.13
2018-12-23T21:12:41.046Z,4.70
2018-12-23T21:15:59.615Z,4.60
2018-12-23T21:19:04.258Z,4.47
2018-12-23T21:22:03.371Z,5.57
2018-12-23T21:25:01.804Z,5.30
2018-12-23T21:28:01.508Z,6.33
2018-12-23T21:30:54.563Z,5.13
2018-12-23T21:34:02.054Z,5.87
2018-12-23T21:37:17.103Z,6.27
2018-12-23T21:40:20.805Z,7.67
2018-12-23T21:43:09.874Z,5.93
2018-12-23T21:46:11.808Z,8.20
2018-12-23T21:49:19.980Z,7.40
2018-12-23T21:52:19.346Z,5.50
2018-12-23T21:55:16.764Z,5.77
2018-12-23T21:58:22.606Z,5.63
2018-12-23T22:01:29.202Z,7.40
2018-12-23T22:04:35.256Z,8.17
2018-12-23T22:07:30.869Z,7.67
2018-12-23T22:10:23.521Z,9.03
2018-12-23T22:13:27.760Z,7.40
2018-12-23T22:15:58.226Z,7.50
2018-12-23T22:18:28.976Z,6.87
2018-12-23T22:20:59.343Z,5.27
2018-12-23T22:23:30.391Z,5.47
2018-12-23T22:26:05.135Z,4.30
2018-12-23T22:28:35.637Z,4.40
2018-12-23T22:31:05.814Z,4.10
2018-12-23T22:33:35.846Z,4.03
2018-12-23T22:36:05.946Z,4.93
2018-12-23T22:38:36.018Z,4.00
2018-12-23T22:41:12.071Z,3.37
2018-12-23T22:43:42.174Z,3.60
2018-12-23T22:46:12.380Z,4.20
2018-12-23T22:48:42.332Z,3.60
2018-12-23T22:51:12.363Z,2.93
2018-12-23T22:54:01.268Z,2.93
2018-12-23T22:56:31.359Z,2.63
2018-12-23T22:59:01.585Z,3.10
2018-12-23T23:01:31.940Z,3.03
2018-12-23T23:04:02.808Z,3.13
2018-12-23T23:06:32.818Z,3.20
2018-12-23T23:09:04.243Z,3.57
2018-12-23T23:11:34.278Z,3.47
2018-12-23T23:14:04.479Z,4.70
2018-12-23T23:16:34.470Z,4.27
2018-12-23T23:19:04.604Z,5.40
2018-12-23T23:21:34.423Z,4.70
2018-12-23T23:24:04.275Z,5.13
2018-12-23T23:26:34.318Z,4.53
2018-12-23T23:29:04.341Z,5.30
2018-12-23T23:31:34.403Z,4.87
2018-12-23T23:34:04.445Z,5.00
2018-12-23T23:36:34.383Z,4.47
2018-12-23T23:39:05.534Z,4.10
2018-12-23T23:41:35.597Z,4.53
2018-12-23T23:44:05.616Z,4.73
2018-12-23T23:46:35.519Z,3.97
2018-12-23T23:49:05.488Z,3.33
2018-12-23T23:51:35.454Z,4.40
2018-12-23T23:54:05.658Z,3.43
2018-12-23T23:56:35.791Z,4.27
2018-12-23T23:59:05.734Z,3.50
